SLSA/SBL METAR and TAF weather

Enter ICAO airport designator
Station Type Date Time Source
SLSA METAR 2021/05/13 11:00 UTC NOAA

SLSA 131100Z 16005KT 9999 BKN070 18/16 Q1016


Station Type Date Time Source
SLSA Decoded METAR 2021/05/13 11:00 UTC NOAA

Santa Ana, Bolivia (SLSA) 13-46S 065-26W
May 13, 2021 - 07:00 AM EDT / 2021.05.13 1100 UTC
Wind: from the SSE (160 degrees) at 6 MPH (5 KT):0
Visibility: greater than 7 mile(s):0
Sky conditions: mostly cloudy
Temperature: 64 F (18 C)
Dew Point: 60 F (16 C)
Relative Humidity: 88%
Pressure (altimeter): 30.00 in. Hg (1016 hPa)
ob: SLSA 131100Z 16005KT 9999 BKN070 18/16 Q1016
cycle: 11

Station Type Date Time Source
SLSA TAF 2009/01/07 11:00 UTC NOAA

METAR SLSA 071100Z 00000KT 9999 FEW020 BKN080 26/24 Q1009

Example: see airport list